sensor_id;sensor_type;location;lat;lon;timestamp;P1;durP1;ratioP1;P2;durP2;ratioP2
76059;SDS011;64759;52.220;5.170;2023-04-06T00:01:41;20.70;;;10.05;;
76059;SDS011;64759;52.220;5.170;2023-04-06T00:04:07;14.27;;;10.00;;
76059;SDS011;64759;52.220;5.170;2023-04-06T00:06:32;18.67;;;9.85;;
76059;SDS011;64759;52.220;5.170;2023-04-06T00:08:59;16.80;;;9.98;;
76059;SDS011;64759;52.220;5.170;2023-04-06T00:11:25;23.50;;;10.55;;
76059;SDS011;64759;52.220;5.170;2023-04-06T00:13:51;16.45;;;10.63;;
76059;SDS011;64759;52.220;5.170;2023-04-06T00:16:17;17.48;;;10.20;;
76059;SDS011;64759;52.220;5.170;2023-04-06T00:18:42;17.20;;;9.23;;
76059;SDS011;64759;52.220;5.170;2023-04-06T00:21:10;16.83;;;9.40;;
76059;SDS011;64759;52.220;5.170;2023-04-06T00:23:37;16.65;;;10.05;;
76059;SDS011;64759;52.220;5.170;2023-04-06T00:26:03;14.80;;;9.55;;
76059;SDS011;64759;52.220;5.170;2023-04-06T00:28:28;17.38;;;9.95;;
76059;SDS011;64759;52.220;5.170;2023-04-06T00:30:55;15.05;;;9.05;;
76059;SDS011;64759;52.220;5.170;2023-04-06T00:33:22;22.08;;;10.35;;
76059;SDS011;64759;52.220;5.170;2023-04-06T00:35:48;16.92;;;9.88;;
76059;SDS011;64759;52.220;5.170;2023-04-06T00:38:14;17.95;;;10.27;;
76059;SDS011;64759;52.220;5.170;2023-04-06T00:40:40;17.00;;;9.00;;
76059;SDS011;64759;52.220;5.170;2023-04-06T00:43:06;17.20;;;9.75;;
76059;SDS011;64759;52.220;5.170;2023-04-06T00:45:32;17.85;;;9.38;;
76059;SDS011;64759;52.220;5.170;2023-04-06T00:47:58;15.05;;;9.57;;
76059;SDS011;64759;52.220;5.170;2023-04-06T00:50:24;17.52;;;9.20;;
76059;SDS011;64759;52.220;5.170;2023-04-06T00:52:50;15.55;;;9.43;;
76059;SDS011;64759;52.220;5.170;2023-04-06T00:55:19;16.95;;;9.38;;
76059;SDS011;64759;52.220;5.170;2023-04-06T00:57:44;16.90;;;8.88;;
76059;SDS011;64759;52.220;5.170;2023-04-06T01:00:10;15.68;;;8.32;;
76059;SDS011;64759;52.220;5.170;2023-04-06T01:02:38;15.63;;;9.07;;
76059;SDS011;64759;52.220;5.170;2023-04-06T01:05:04;17.55;;;10.02;;
76059;SDS011;64759;52.220;5.170;2023-04-06T01:07:46;16.38;;;8.98;;
76059;SDS011;64759;52.220;5.170;2023-04-06T01:10:22;14.48;;;9.10;;
76059;SDS011;64759;52.220;5.170;2023-04-06T01:12:49;18.20;;;9.98;;
76059;SDS011;64759;52.220;5.170;2023-04-06T01:15:22;15.55;;;9.02;;
76059;SDS011;64759;52.220;5.170;2023-04-06T01:17:50;15.15;;;8.40;;
76059;SDS011;64759;52.220;5.170;2023-04-06T01:20:16;15.10;;;8.93;;
76059;SDS011;64759;52.220;5.170;2023-04-06T01:22:42;14.30;;;8.32;;
76059;SDS011;64759;52.220;5.170;2023-04-06T01:25:08;15.23;;;9.23;;
76059;SDS011;64759;52.220;5.170;2023-04-06T01:27:55;17.65;;;8.98;;
76059;SDS011;64759;52.220;5.170;2023-04-06T01:30:23;17.58;;;9.60;;
76059;SDS011;64759;52.220;5.170;2023-04-06T01:32:59;13.75;;;8.27;;
76059;SDS011;64759;52.220;5.170;2023-04-06T01:35:42;16.23;;;8.27;;
76059;SDS011;64759;52.220;5.170;2023-04-06T01:38:14;14.68;;;8.57;;
76059;SDS011;64759;52.220;5.170;2023-04-06T01:40:39;16.55;;;8.13;;
76059;SDS011;64759;52.220;5.170;2023-04-06T01:43:05;15.07;;;8.57;;
76059;SDS011;64759;52.220;5.170;2023-04-06T01:45:38;14.57;;;8.27;;
76059;SDS011;64759;52.220;5.170;2023-04-06T01:48:13;19.40;;;8.95;;
76059;SDS011;64759;52.220;5.170;2023-04-06T01:50:38;13.68;;;8.00;;
76059;SDS011;64759;52.220;5.170;2023-04-06T01:53:05;15.23;;;8.90;;
76059;SDS011;64759;52.220;5.170;2023-04-06T01:55:32;12.32;;;7.85;;
76059;SDS011;64759;52.220;5.170;2023-04-06T01:58:14;16.42;;;8.57;;
76059;SDS011;64759;52.220;5.170;2023-04-06T02:00:40;12.05;;;8.35;;
76059;SDS011;64759;52.220;5.170;2023-04-06T02:03:05;16.50;;;7.97;;
76059;SDS011;64759;52.220;5.170;2023-04-06T02:05:32;11.93;;;8.00;;
76059;SDS011;64759;52.220;5.170;2023-04-06T02:08:06;12.07;;;7.95;;
76059;SDS011;64759;52.220;5.170;2023-04-06T02:10:34;12.90;;;7.88;;
76059;SDS011;64759;52.220;5.170;2023-04-06T02:13:08;13.70;;;7.30;;
76059;SDS011;64759;52.220;5.170;2023-04-06T02:15:34;14.75;;;8.45;;
76059;SDS011;64759;52.220;5.170;2023-04-06T02:17:59;11.60;;;7.97;;
76059;SDS011;64759;52.220;5.170;2023-04-06T02:20:25;14.50;;;8.40;;
76059;SDS011;64759;52.220;5.170;2023-04-06T02:22:51;15.48;;;8.00;;
76059;SDS011;64759;52.220;5.170;2023-04-06T02:25:16;13.90;;;8.38;;
76059;SDS011;64759;52.220;5.170;2023-04-06T02:27:42;10.73;;;7.22;;
76059;SDS011;64759;52.220;5.170;2023-04-06T02:30:07;12.73;;;7.70;;
76059;SDS011;64759;52.220;5.170;2023-04-06T02:32:33;14.20;;;8.43;;
76059;SDS011;64759;52.220;5.170;2023-04-06T02:35:00;11.98;;;7.72;;
76059;SDS011;64759;52.220;5.170;2023-04-06T02:37:28;11.88;;;8.05;;
76059;SDS011;64759;52.220;5.170;2023-04-06T02:39:53;11.98;;;7.43;;
76059;SDS011;64759;52.220;5.170;2023-04-06T02:42:19;15.60;;;8.23;;
76059;SDS011;64759;52.220;5.170;2023-04-06T02:44:47;18.50;;;7.53;;
76059;SDS011;64759;52.220;5.170;2023-04-06T02:47:13;16.98;;;7.93;;
76059;SDS011;64759;52.220;5.170;2023-04-06T02:49:43;13.52;;;7.70;;
76059;SDS011;64759;52.220;5.170;2023-04-06T02:52:08;12.68;;;7.15;;
76059;SDS011;64759;52.220;5.170;2023-04-06T02:54:34;11.18;;;7.20;;
76059;SDS011;64759;52.220;5.170;2023-04-06T02:57:01;13.40;;;8.05;;
76059;SDS011;64759;52.220;5.170;2023-04-06T02:59:38;15.35;;;8.27;;
76059;SDS011;64759;52.220;5.170;2023-04-06T03:02:13;13.63;;;8.23;;
76059;SDS011;64759;52.220;5.170;2023-04-06T03:04:39;15.80;;;8.50;;
76059;SDS011;64759;52.220;5.170;2023-04-06T03:07:13;13.73;;;8.18;;
76059;SDS011;64759;52.220;5.170;2023-04-06T03:09:38;14.23;;;8.23;;
76059;SDS011;64759;52.220;5.170;2023-04-06T03:12:04;10.25;;;7.20;;
76059;SDS011;64759;52.220;5.170;2023-04-06T03:14:34;11.80;;;7.07;;
76059;SDS011;64759;52.220;5.170;2023-04-06T03:17:01;12.73;;;7.95;;
76059;SDS011;64759;52.220;5.170;2023-04-06T03:19:28;16.42;;;7.80;;
76059;SDS011;64759;52.220;5.170;2023-04-06T03:21:57;18.10;;;9.50;;
76059;SDS011;64759;52.220;5.170;2023-04-06T03:24:24;18.08;;;8.23;;
76059;SDS011;64759;52.220;5.170;2023-04-06T03:26:49;17.13;;;8.80;;
76059;SDS011;64759;52.220;5.170;2023-04-06T03:29:15;15.55;;;9.00;;
76059;SDS011;64759;52.220;5.170;2023-04-06T03:31:40;12.60;;;8.30;;
76059;SDS011;64759;52.220;5.170;2023-04-06T03:34:28;17.33;;;9.45;;
76059;SDS011;64759;52.220;5.170;2023-04-06T03:36:53;21.05;;;9.75;;
76059;SDS011;64759;52.220;5.170;2023-04-06T03:39:20;17.20;;;9.70;;
76059;SDS011;64759;52.220;5.170;2023-04-06T03:41:45;19.38;;;10.20;;
76059;SDS011;64759;52.220;5.170;2023-04-06T03:44:27;12.85;;;8.95;;
76059;SDS011;64759;52.220;5.170;2023-04-06T03:46:52;15.80;;;9.52;;
76059;SDS011;64759;52.220;5.170;2023-04-06T03:49:20;15.75;;;10.27;;
76059;SDS011;64759;52.220;5.170;2023-04-06T03:51:48;21.50;;;10.48;;
76059;SDS011;64759;52.220;5.170;2023-04-06T03:54:14;20.02;;;10.68;;
76059;SDS011;64759;52.220;5.170;2023-04-06T03:56:39;17.67;;;10.18;;
76059;SDS011;64759;52.220;5.170;2023-04-06T03:59:05;15.95;;;9.80;;
76059;SDS011;64759;52.220;5.170;2023-04-06T04:01:30;19.38;;;10.63;;
76059;SDS011;64759;52.220;5.170;2023-04-06T04:03:56;20.13;;;11.77;;
76059;SDS011;64759;52.220;5.170;2023-04-06T04:06:21;19.38;;;10.75;;
76059;SDS011;64759;52.220;5.170;2023-04-06T04:08:47;23.02;;;10.95;;
76059;SDS011;64759;52.220;5.170;2023-04-06T04:11:13;21.10;;;10.75;;
76059;SDS011;64759;52.220;5.170;2023-04-06T04:13:41;23.13;;;12.38;;
76059;SDS011;64759;52.220;5.170;2023-04-06T04:16:07;23.92;;;11.25;;
76059;SDS011;64759;52.220;5.170;2023-04-06T04:18:34;20.67;;;11.07;;
76059;SDS011;64759;52.220;5.170;2023-04-06T04:20:59;19.85;;;11.88;;
76059;SDS011;64759;52.220;5.170;2023-04-06T04:23:25;22.50;;;11.55;;
76059;SDS011;64759;52.220;5.170;2023-04-06T04:25:51;16.17;;;10.88;;
76059;SDS011;64759;52.220;5.170;2023-04-06T04:28:16;20.15;;;11.50;;
76059;SDS011;64759;52.220;5.170;2023-04-06T04:30:43;20.23;;;11.93;;
76059;SDS011;64759;52.220;5.170;2023-04-06T04:33:10;19.80;;;11.70;;
76059;SDS011;64759;52.220;5.170;2023-04-06T04:35:36;22.55;;;12.07;;
76059;SDS011;64759;52.220;5.170;2023-04-06T04:38:02;22.67;;;12.82;;
76059;SDS011;64759;52.220;5.170;2023-04-06T04:40:29;24.52;;;11.95;;
76059;SDS011;64759;52.220;5.170;2023-04-06T04:43:03;19.25;;;11.15;;
76059;SDS011;64759;52.220;5.170;2023-04-06T04:45:31;24.58;;;13.63;;
76059;SDS011;64759;52.220;5.170;2023-04-06T04:48:03;22.27;;;11.27;;
76059;SDS011;64759;52.220;5.170;2023-04-06T04:50:39;20.33;;;11.68;;
76059;SDS011;64759;52.220;5.170;2023-04-06T04:53:04;23.10;;;12.52;;
76059;SDS011;64759;52.220;5.170;2023-04-06T04:55:32;20.92;;;12.80;;
76059;SDS011;64759;52.220;5.170;2023-04-06T04:57:59;23.08;;;12.07;;
76059;SDS011;64759;52.220;5.170;2023-04-06T05:00:39;24.10;;;12.80;;
76059;SDS011;64759;52.220;5.170;2023-04-06T05:03:04;23.15;;;13.35;;
76059;SDS011;64759;52.220;5.170;2023-04-06T05:05:34;22.83;;;12.15;;
76059;SDS011;64759;52.220;5.170;2023-04-06T05:08:00;23.25;;;13.13;;
76059;SDS011;64759;52.220;5.170;2023-04-06T05:13:06;23.42;;;13.15;;
76059;SDS011;64759;52.220;5.170;2023-04-06T05:15:32;23.25;;;14.02;;
76059;SDS011;64759;52.220;5.170;2023-04-06T05:18:07;21.35;;;12.65;;
76059;SDS011;64759;52.220;5.170;2023-04-06T05:20:34;21.45;;;12.77;;
76059;SDS011;64759;52.220;5.170;2023-04-06T05:23:00;25.38;;;12.43;;
76059;SDS011;64759;52.220;5.170;2023-04-06T05:25:27;24.25;;;13.32;;
76059;SDS011;64759;52.220;5.170;2023-04-06T05:27:56;22.95;;;14.57;;
76059;SDS011;64759;52.220;5.170;2023-04-06T05:30:41;21.60;;;13.50;;
76059;SDS011;64759;52.220;5.170;2023-04-06T05:33:09;24.90;;;14.27;;
76059;SDS011;64759;52.220;5.170;2023-04-06T05:35:48;29.98;;;14.57;;
76059;SDS011;64759;52.220;5.170;2023-04-06T05:38:13;24.67;;;14.10;;
76059;SDS011;64759;52.220;5.170;2023-04-06T05:40:39;27.67;;;13.15;;
76059;SDS011;64759;52.220;5.170;2023-04-06T05:43:08;24.73;;;14.32;;
76059;SDS011;64759;52.220;5.170;2023-04-06T05:45:36;22.42;;;13.77;;
76059;SDS011;64759;52.220;5.170;2023-04-06T05:48:03;26.85;;;13.02;;
76059;SDS011;64759;52.220;5.170;2023-04-06T05:50:29;23.23;;;13.95;;
76059;SDS011;64759;52.220;5.170;2023-04-06T05:52:55;23.65;;;14.30;;
76059;SDS011;64759;52.220;5.170;2023-04-06T05:55:24;25.27;;;14.23;;
76059;SDS011;64759;52.220;5.170;2023-04-06T05:58:01;24.17;;;14.48;;
76059;SDS011;64759;52.220;5.170;2023-04-06T06:00:27;24.48;;;13.43;;
76059;SDS011;64759;52.220;5.170;2023-04-06T06:03:01;26.00;;;14.38;;
76059;SDS011;64759;52.220;5.170;2023-04-06T06:05:29;22.83;;;14.32;;
76059;SDS011;64759;52.220;5.170;2023-04-06T06:07:59;23.90;;;14.48;;
76059;SDS011;64759;52.220;5.170;2023-04-06T06:10:28;20.63;;;14.05;;
76059;SDS011;64759;52.220;5.170;2023-04-06T06:12:54;20.98;;;13.77;;
76059;SDS011;64759;52.220;5.170;2023-04-06T06:15:20;23.88;;;15.10;;
76059;SDS011;64759;52.220;5.170;2023-04-06T06:17:47;26.80;;;15.05;;
76059;SDS011;64759;52.220;5.170;2023-04-06T06:20:12;30.85;;;14.70;;
76059;SDS011;64759;52.220;5.170;2023-04-06T06:22:38;28.83;;;15.23;;
76059;SDS011;64759;52.220;5.170;2023-04-06T06:27:34;25.42;;;14.70;;
76059;SDS011;64759;52.220;5.170;2023-04-06T06:29:59;25.35;;;14.70;;
76059;SDS011;64759;52.220;5.170;2023-04-06T06:32:29;22.80;;;14.77;;
76059;SDS011;64759;52.220;5.170;2023-04-06T06:34:54;23.67;;;14.32;;
76059;SDS011;64759;52.220;5.170;2023-04-06T06:37:20;22.77;;;15.10;;
76059;SDS011;64759;52.220;5.170;2023-04-06T06:39:46;21.42;;;15.60;;
76059;SDS011;64759;52.220;5.170;2023-04-06T06:42:12;27.42;;;16.17;;
76059;SDS011;64759;52.220;5.170;2023-04-06T06:44:50;24.88;;;15.57;;
76059;SDS011;64759;52.220;5.170;2023-04-06T06:47:16;25.80;;;15.23;;
76059;SDS011;64759;52.220;5.170;2023-04-06T06:49:43;26.23;;;15.15;;
76059;SDS011;64759;52.220;5.170;2023-04-06T06:52:08;29.20;;;17.10;;
76059;SDS011;64759;52.220;5.170;2023-04-06T06:54:34;24.00;;;15.85;;
76059;SDS011;64759;52.220;5.170;2023-04-06T06:56:59;29.63;;;16.88;;
76059;SDS011;64759;52.220;5.170;2023-04-06T06:59:25;31.38;;;17.33;;
76059;SDS011;64759;52.220;5.170;2023-04-06T07:01:52;30.58;;;16.48;;
76059;SDS011;64759;52.220;5.170;2023-04-06T07:04:18;28.23;;;17.05;;
76059;SDS011;64759;52.220;5.170;2023-04-06T07:06:44;25.80;;;17.02;;
76059;SDS011;64759;52.220;5.170;2023-04-06T07:09:11;26.55;;;16.17;;
76059;SDS011;64759;52.220;5.170;2023-04-06T07:11:36;29.95;;;16.27;;
76059;SDS011;64759;52.220;5.170;2023-04-06T07:14:01;24.52;;;15.82;;
76059;SDS011;64759;52.220;5.170;2023-04-06T07:16:27;29.08;;;16.65;;
76059;SDS011;64759;52.220;5.170;2023-04-06T07:18:53;29.85;;;16.80;;
76059;SDS011;64759;52.220;5.170;2023-04-06T07:21:19;26.60;;;16.92;;
76059;SDS011;64759;52.220;5.170;2023-04-06T07:23:44;27.60;;;17.17;;
76059;SDS011;64759;52.220;5.170;2023-04-06T07:26:10;28.63;;;18.08;;
76059;SDS011;64759;52.220;5.170;2023-04-06T07:28:36;29.05;;;17.92;;
76059;SDS011;64759;52.220;5.170;2023-04-06T07:31:02;32.25;;;18.08;;
76059;SDS011;64759;52.220;5.170;2023-04-06T07:33:28;38.67;;;21.35;;
76059;SDS011;64759;52.220;5.170;2023-04-06T07:35:55;36.25;;;18.85;;
76059;SDS011;64759;52.220;5.170;2023-04-06T07:38:22;34.17;;;18.05;;
76059;SDS011;64759;52.220;5.170;2023-04-06T07:40:50;30.42;;;18.80;;
76059;SDS011;64759;52.220;5.170;2023-04-06T07:43:16;28.15;;;17.88;;
76059;SDS011;64759;52.220;5.170;2023-04-06T07:45:42;33.58;;;18.58;;
76059;SDS011;64759;52.220;5.170;2023-04-06T07:48:07;28.77;;;17.95;;
76059;SDS011;64759;52.220;5.170;2023-04-06T07:50:33;32.15;;;18.58;;
76059;SDS011;64759;52.220;5.170;2023-04-06T07:52:59;28.13;;;18.25;;
76059;SDS011;64759;52.220;5.170;2023-04-06T07:55:26;35.22;;;19.02;;
76059;SDS011;64759;52.220;5.170;2023-04-06T07:57:51;35.63;;;19.73;;
76059;SDS011;64759;52.220;5.170;2023-04-06T08:00:17;35.25;;;19.05;;
76059;SDS011;64759;52.220;5.170;2023-04-06T08:02:42;33.63;;;19.83;;
76059;SDS011;64759;52.220;5.170;2023-04-06T08:05:08;37.15;;;19.83;;
76059;SDS011;64759;52.220;5.170;2023-04-06T08:07:34;39.03;;;20.30;;
76059;SDS011;64759;52.220;5.170;2023-04-06T08:10:00;34.15;;;20.20;;
76059;SDS011;64759;52.220;5.170;2023-04-06T08:12:26;36.67;;;20.85;;
76059;SDS011;64759;52.220;5.170;2023-04-06T08:14:51;33.25;;;20.23;;
76059;SDS011;64759;52.220;5.170;2023-04-06T08:17:17;31.50;;;20.13;;
76059;SDS011;64759;52.220;5.170;2023-04-06T08:19:44;31.83;;;20.85;;
76059;SDS011;64759;52.220;5.170;2023-04-06T08:22:11;37.35;;;21.17;;
76059;SDS011;64759;52.220;5.170;2023-04-06T08:24:37;38.95;;;21.58;;
76059;SDS011;64759;52.220;5.170;2023-04-06T08:27:02;38.05;;;22.23;;
76059;SDS011;64759;52.220;5.170;2023-04-06T08:29:28;38.03;;;21.55;;
76059;SDS011;64759;52.220;5.170;2023-04-06T08:31:53;33.85;;;20.80;;
76059;SDS011;64759;52.220;5.170;2023-04-06T08:34:19;32.80;;;20.75;;
76059;SDS011;64759;52.220;5.170;2023-04-06T08:36:44;34.35;;;21.05;;
76059;SDS011;64759;52.220;5.170;2023-04-06T08:39:11;34.80;;;21.35;;
76059;SDS011;64759;52.220;5.170;2023-04-06T08:41:36;32.67;;;19.48;;
76059;SDS011;64759;52.220;5.170;2023-04-06T08:44:02;39.35;;;22.70;;
76059;SDS011;64759;52.220;5.170;2023-04-06T08:46:31;30.70;;;20.30;;
76059;SDS011;64759;52.220;5.170;2023-04-06T08:48:57;35.33;;;20.88;;
76059;SDS011;64759;52.220;5.170;2023-04-06T08:51:24;33.25;;;20.05;;
76059;SDS011;64759;52.220;5.170;2023-04-06T08:53:52;33.75;;;20.98;;
76059;SDS011;64759;52.220;5.170;2023-04-06T08:56:19;35.38;;;20.92;;
76059;SDS011;64759;52.220;5.170;2023-04-06T08:58:50;30.42;;;19.45;;
76059;SDS011;64759;52.220;5.170;2023-04-06T09:01:17;35.22;;;20.85;;
76059;SDS011;64759;52.220;5.170;2023-04-06T09:06:14;30.20;;;20.15;;
76059;SDS011;64759;52.220;5.170;2023-04-06T09:08:40;37.15;;;21.05;;
76059;SDS011;64759;52.220;5.170;2023-04-06T09:11:09;33.47;;;20.42;;
76059;SDS011;64759;52.220;5.170;2023-04-06T09:13:45;32.90;;;21.42;;
76059;SDS011;64759;52.220;5.170;2023-04-06T09:16:11;31.77;;;21.98;;
76059;SDS011;64759;52.220;5.170;2023-04-06T09:18:37;40.28;;;21.70;;
76059;SDS011;64759;52.220;5.170;2023-04-06T09:21:03;45.47;;;23.13;;
76059;SDS011;64759;52.220;5.170;2023-04-06T09:23:31;30.13;;;20.63;;
76059;SDS011;64759;52.220;5.170;2023-04-06T09:26:07;32.80;;;21.33;;
76059;SDS011;64759;52.220;5.170;2023-04-06T09:28:50;32.00;;;21.27;;
76059;SDS011;64759;52.220;5.170;2023-04-06T09:31:24;33.15;;;20.77;;
76059;SDS011;64759;52.220;5.170;2023-04-06T09:33:52;32.63;;;22.05;;
76059;SDS011;64759;52.220;5.170;2023-04-06T09:36:18;32.13;;;22.30;;
76059;SDS011;64759;52.220;5.170;2023-04-06T09:38:54;38.05;;;23.00;;
76059;SDS011;64759;52.220;5.170;2023-04-06T09:41:26;40.53;;;23.75;;
76059;SDS011;64759;52.220;5.170;2023-04-06T09:44:06;41.22;;;24.35;;
76059;SDS011;64759;52.220;5.170;2023-04-06T09:46:35;41.92;;;24.30;;
76059;SDS011;64759;52.220;5.170;2023-04-06T09:49:06;36.90;;;23.83;;
76059;SDS011;64759;52.220;5.170;2023-04-06T09:52:14;42.15;;;26.98;;
76059;SDS011;64759;52.220;5.170;2023-04-06T09:54:24;43.25;;;27.88;;
76059;SDS011;64759;52.220;5.170;2023-04-06T09:59:55;40.38;;;25.45;;
76059;SDS011;64759;52.220;5.170;2023-04-06T10:02:32;39.78;;;25.73;;
76059;SDS011;64759;52.220;5.170;2023-04-06T10:05:02;36.42;;;24.10;;
76059;SDS011;64759;52.220;5.170;2023-04-06T10:07:33;43.70;;;23.90;;
76059;SDS011;64759;52.220;5.170;2023-04-06T10:09:59;35.63;;;23.50;;
76059;SDS011;64759;52.220;5.170;2023-04-06T10:12:27;35.92;;;23.10;;
76059;SDS011;64759;52.220;5.170;2023-04-06T10:14:52;41.28;;;24.67;;
76059;SDS011;64759;52.220;5.170;2023-04-06T10:17:19;37.50;;;23.42;;
76059;SDS011;64759;52.220;5.170;2023-04-06T10:19:46;36.35;;;22.65;;
76059;SDS011;64759;52.220;5.170;2023-04-06T10:22:29;36.92;;;22.38;;
76059;SDS011;64759;52.220;5.170;2023-04-06T10:25:01;39.00;;;24.10;;
76059;SDS011;64759;52.220;5.170;2023-04-06T10:27:28;38.53;;;22.75;;
76059;SDS011;64759;52.220;5.170;2023-04-06T10:29:54;32.78;;;19.85;;
76059;SDS011;64759;52.220;5.170;2023-04-06T10:32:33;30.48;;;19.75;;
76059;SDS011;64759;52.220;5.170;2023-04-06T10:35:06;52.05;;;20.05;;
76059;SDS011;64759;52.220;5.170;2023-04-06T10:37:51;29.95;;;18.50;;
76059;SDS011;64759;52.220;5.170;2023-04-06T10:40:24;24.75;;;16.70;;
76059;SDS011;64759;52.220;5.170;2023-04-06T10:42:54;25.60;;;16.40;;
76059;SDS011;64759;52.220;5.170;2023-04-06T10:45:21;29.17;;;15.98;;
76059;SDS011;64759;52.220;5.170;2023-04-06T10:47:47;28.48;;;16.23;;
76059;SDS011;64759;52.220;5.170;2023-04-06T10:50:14;24.73;;;14.45;;
76059;SDS011;64759;52.220;5.170;2023-04-06T10:52:41;18.67;;;12.23;;
76059;SDS011;64759;52.220;5.170;2023-04-06T10:55:08;19.88;;;11.18;;
76059;SDS011;64759;52.220;5.170;2023-04-06T10:57:35;12.82;;;10.35;;
76059;SDS011;64759;52.220;5.170;2023-04-06T11:00:03;14.13;;;8.88;;
76059;SDS011;64759;52.220;5.170;2023-04-06T11:02:33;11.85;;;8.68;;
76059;SDS011;64759;52.220;5.170;2023-04-06T11:05:00;11.77;;;9.38;;
76059;SDS011;64759;52.220;5.170;2023-04-06T11:07:25;14.38;;;9.23;;
76059;SDS011;64759;52.220;5.170;2023-04-06T11:09:53;12.63;;;9.40;;
76059;SDS011;64759;52.220;5.170;2023-04-06T11:12:25;15.57;;;9.68;;
76059;SDS011;64759;52.220;5.170;2023-04-06T11:14:55;13.18;;;8.88;;
76059;SDS011;64759;52.220;5.170;2023-04-06T11:17:31;13.88;;;9.57;;
76059;SDS011;64759;52.220;5.170;2023-04-06T11:19:59;13.68;;;9.25;;
76059;SDS011;64759;52.220;5.170;2023-04-06T11:22:25;11.43;;;9.63;;
76059;SDS011;64759;52.220;5.170;2023-04-06T11:24:51;15.15;;;8.85;;
76059;SDS011;64759;52.220;5.170;2023-04-06T11:27:17;13.70;;;9.93;;
76059;SDS011;64759;52.220;5.170;2023-04-06T11:29:43;11.45;;;8.25;;
76059;SDS011;64759;52.220;5.170;2023-04-06T11:32:19;15.85;;;8.85;;
76059;SDS011;64759;52.220;5.170;2023-04-06T11:34:46;14.85;;;9.13;;
76059;SDS011;64759;52.220;5.170;2023-04-06T11:37:12;15.95;;;9.68;;
76059;SDS011;64759;52.220;5.170;2023-04-06T11:39:48;13.70;;;9.50;;
76059;SDS011;64759;52.220;5.170;2023-04-06T11:42:25;12.70;;;9.32;;
76059;SDS011;64759;52.220;5.170;2023-04-06T11:44:57;14.07;;;9.70;;
76059;SDS011;64759;52.220;5.170;2023-04-06T11:47:33;11.85;;;8.57;;
76059;SDS011;64759;52.220;5.170;2023-04-06T11:50:09;10.18;;;7.95;;
76059;SDS011;64759;52.220;5.170;2023-04-06T11:52:36;17.23;;;10.25;;
76059;SDS011;64759;52.220;5.170;2023-04-06T11:55:17;13.25;;;9.10;;
76059;SDS011;64759;52.220;5.170;2023-04-06T11:57:43;12.07;;;7.82;;
76059;SDS011;64759;52.220;5.170;2023-04-06T12:00:10;14.00;;;9.15;;
76059;SDS011;64759;52.220;5.170;2023-04-06T12:02:39;10.18;;;8.50;;
76059;SDS011;64759;52.220;5.170;2023-04-06T12:05:05;12.00;;;9.35;;
76059;SDS011;64759;52.220;5.170;2023-04-06T12:07:32;15.55;;;9.07;;
76059;SDS011;64759;52.220;5.170;2023-04-06T12:09:58;13.55;;;9.00;;
76059;SDS011;64759;52.220;5.170;2023-04-06T12:12:24;12.25;;;9.73;;
76059;SDS011;64759;52.220;5.170;2023-04-06T12:14:50;12.48;;;8.52;;
76059;SDS011;64759;52.220;5.170;2023-04-06T12:17:16;13.38;;;10.07;;
76059;SDS011;64759;52.220;5.170;2023-04-06T12:19:41;12.77;;;8.95;;
76059;SDS011;64759;52.220;5.170;2023-04-06T12:22:06;15.35;;;11.27;;
76059;SDS011;64759;52.220;5.170;2023-04-06T12:24:33;14.57;;;9.50;;
76059;SDS011;64759;52.220;5.170;2023-04-06T12:26:58;15.70;;;11.50;;
76059;SDS011;64759;52.220;5.170;2023-04-06T12:29:24;16.55;;;11.75;;
76059;SDS011;64759;52.220;5.170;2023-04-06T12:31:50;17.20;;;12.30;;
76059;SDS011;64759;52.220;5.170;2023-04-06T12:34:16;15.63;;;11.50;;
76059;SDS011;64759;52.220;5.170;2023-04-06T12:36:41;22.25;;;14.20;;
76059;SDS011;64759;52.220;5.170;2023-04-06T12:39:08;22.95;;;13.77;;
76059;SDS011;64759;52.220;5.170;2023-04-06T12:41:33;22.15;;;14.15;;
76059;SDS011;64759;52.220;5.170;2023-04-06T12:43:59;24.15;;;15.35;;
76059;SDS011;64759;52.220;5.170;2023-04-06T12:46:25;22.83;;;14.75;;
76059;SDS011;64759;52.220;5.170;2023-04-06T12:48:52;19.25;;;14.20;;
76059;SDS011;64759;52.220;5.170;2023-04-06T12:51:21;22.23;;;15.65;;
76059;SDS011;64759;52.220;5.170;2023-04-06T12:53:47;22.95;;;15.00;;
76059;SDS011;64759;52.220;5.170;2023-04-06T12:56:13;25.85;;;18.40;;
76059;SDS011;64759;52.220;5.170;2023-04-06T12:58:40;29.42;;;19.02;;
76059;SDS011;64759;52.220;5.170;2023-04-06T13:01:06;29.35;;;19.80;;
76059;SDS011;64759;52.220;5.170;2023-04-06T13:03:33;26.05;;;17.27;;
76059;SDS011;64759;52.220;5.170;2023-04-06T13:06:00;29.70;;;19.88;;
76059;SDS011;64759;52.220;5.170;2023-04-06T13:08:26;31.70;;;20.08;;
76059;SDS011;64759;52.220;5.170;2023-04-06T13:10:52;32.10;;;20.38;;
76059;SDS011;64759;52.220;5.170;2023-04-06T13:13:25;29.83;;;20.27;;
76059;SDS011;64759;52.220;5.170;2023-04-06T13:15:52;33.92;;;19.35;;
76059;SDS011;64759;52.220;5.170;2023-04-06T13:18:20;32.00;;;20.63;;
76059;SDS011;64759;52.220;5.170;2023-04-06T13:20:48;35.25;;;21.73;;
76059;SDS011;64759;52.220;5.170;2023-04-06T13:23:14;35.08;;;22.13;;
76059;SDS011;64759;52.220;5.170;2023-04-06T13:25:40;33.72;;;22.08;;
76059;SDS011;64759;52.220;5.170;2023-04-06T13:28:05;33.53;;;20.40;;
76059;SDS011;64759;52.220;5.170;2023-04-06T13:30:31;36.45;;;22.30;;
76059;SDS011;64759;52.220;5.170;2023-04-06T13:32:56;31.38;;;20.38;;
76059;SDS011;64759;52.220;5.170;2023-04-06T13:35:22;35.28;;;21.27;;
76059;SDS011;64759;52.220;5.170;2023-04-06T13:37:49;33.13;;;19.80;;
76059;SDS011;64759;52.220;5.170;2023-04-06T13:40:16;39.03;;;22.20;;
76059;SDS011;64759;52.220;5.170;2023-04-06T13:42:42;38.25;;;23.05;;
76059;SDS011;64759;52.220;5.170;2023-04-06T13:45:10;45.13;;;25.88;;
76059;SDS011;64759;52.220;5.170;2023-04-06T13:47:35;38.95;;;25.15;;
76059;SDS011;64759;52.220;5.170;2023-04-06T13:50:01;39.80;;;23.52;;
76059;SDS011;64759;52.220;5.170;2023-04-06T13:52:28;36.17;;;24.20;;
76059;SDS011;64759;52.220;5.170;2023-04-06T13:54:54;34.97;;;22.48;;
76059;SDS011;64759;52.220;5.170;2023-04-06T13:57:19;37.95;;;23.27;;
76059;SDS011;64759;52.220;5.170;2023-04-06T13:59:45;40.65;;;24.70;;
76059;SDS011;64759;52.220;5.170;2023-04-06T14:02:10;32.47;;;22.20;;
76059;SDS011;64759;52.220;5.170;2023-04-06T14:04:37;38.00;;;23.73;;
76059;SDS011;64759;52.220;5.170;2023-04-06T14:07:03;32.88;;;22.13;;
76059;SDS011;64759;52.220;5.170;2023-04-06T14:09:29;33.70;;;22.13;;
76059;SDS011;64759;52.220;5.170;2023-04-06T14:11:56;33.03;;;21.65;;
76059;SDS011;64759;52.220;5.170;2023-04-06T14:14:23;42.03;;;24.70;;
76059;SDS011;64759;52.220;5.170;2023-04-06T14:16:51;36.58;;;23.45;;
76059;SDS011;64759;52.220;5.170;2023-04-06T14:19:17;38.10;;;23.25;;
76059;SDS011;64759;52.220;5.170;2023-04-06T14:21:46;47.92;;;27.25;;
76059;SDS011;64759;52.220;5.170;2023-04-06T14:24:11;39.33;;;25.15;;
76059;SDS011;64759;52.220;5.170;2023-04-06T14:26:39;33.55;;;22.13;;
76059;SDS011;64759;52.220;5.170;2023-04-06T14:29:06;31.45;;;21.20;;
76059;SDS011;64759;52.220;5.170;2023-04-06T14:31:32;33.05;;;22.10;;
76059;SDS011;64759;52.220;5.170;2023-04-06T14:34:00;41.15;;;25.05;;
76059;SDS011;64759;52.220;5.170;2023-04-06T14:36:26;34.13;;;22.75;;
76059;SDS011;64759;52.220;5.170;2023-04-06T14:38:54;37.10;;;23.50;;
76059;SDS011;64759;52.220;5.170;2023-04-06T14:41:23;45.63;;;25.55;;